Time;durP1;ratioP1;P1;durP2;ratioP2;P2;SDS_P1;SDS_P2;PMS_P1;PMS_P2;Temp;Humidity;BMP_temperature;BMP_pressure;BME280_temperature;BME280_humidity;BME280_pressure;Samples;Min_cycle;Max_cycle;Signal;HPM_P1;HPM_P2
2022/05/12 00:00:38;;;;;;;;;;;;;;;;;;5055616;28;28368;-82
2022/05/12 00:03:03;;;;;;;;;;;;;;;;;;5064796;28;28568;-82
2022/05/12 00:05:28;;;;;;;;;;;;;;;;;;5075936;28;28288;-82
2022/05/12 00:07:53;;;;;;;;;;;;;;;;;;5075691;28;28404;-81
2022/05/12 00:10:18;;;;;;;;;;;;;;;;;;5075401;28;28401;-81
2022/05/12 00:12:43;;;;;;;;;;;;;;;;;;5075655;28;28280;-81
2022/05/12 00:15:08;;;;;;;;;;;;;;;;;;5075549;28;28229;-82
2022/05/12 00:17:33;;;;;;;;;;;;;;;;;;5074713;28;28664;-82
2022/05/12 00:20:00;;;;;;;;;;;;;;;;;;5075400;28;28331;-82
2022/05/12 00:22:25;;;;;;;;;;;;;;;;;;5075357;28;28362;-82
2022/05/12 00:24:50;;;;;;;;;;;;;;;;;;5075428;28;28470;-82
2022/05/12 00:27:15;;;;;;;;;;;;;;;;;;5075253;28;28721;-82
2022/05/12 00:29:41;;;;;;;;;;;;;;;;;;5075622;28;28257;-82
2022/05/12 00:32:06;;;;;;;;;;;;;;;;;;5071011;28;28386;-82
2022/05/12 00:34:31;;;;;;;;;;;;;;;;;;5061435;28;28320;-82
2022/05/12 00:36:56;;;;;;;;;;;;;;;;;;5074779;28;28611;-81
2022/05/12 00:39:21;;;;;;;;;;;;;;;;;;5073545;28;28713;-82
2022/05/12 00:41:46;;;;;;;;;;;;;;;;;;5074916;28;28307;-82
2022/05/12 00:44:11;;;;;;;;;;;;;;;;;;5075070;28;28663;-82
2022/05/12 00:46:36;;;;;;;;;;;;;;;;;;5074312;28;29649;-81
2022/05/12 00:49:02;;;;;;;;;;;;;;;;;;5076504;28;28406;-82
2022/05/12 00:51:27;;;;;;;;;;;;;;;;;;5078776;28;28247;-81
2022/05/12 00:53:52;;;;;;;;;;;;;;;;;;5073661;28;28526;-82
2022/05/12 00:56:17;;;;;;;;;;;;;;;;;;5078207;28;28569;-82
2022/05/12 00:58:42;;;;;;;;;;;;;;;;;;5078045;28;28609;-82
2022/05/12 01:01:07;;;;;;;;;;;;;;;;;;5078405;28;28873;-82
2022/05/12 01:03:32;;;;;;;;;;;;;;;;;;5078590;28;28374;-81
2022/05/12 01:05:57;;;;;;;;;;;;;;;;;;5071574;28;28477;-82
2022/05/12 01:08:22;;;;;;;;;;;;;;;;;;5077963;28;28367;-82
2022/05/12 01:10:47;;;;;;;;;;;;;;;;;;5077879;28;28506;-82
2022/05/12 01:13:12;;;;;;;;;;;;;;;;;;5078080;28;28568;-82
2022/05/12 01:15:38;;;;;;;;;;;;;;;;;;5078062;28;29528;-82
2022/05/12 01:18:03;;;;;;;;;;;;;;;;;;5077802;28;28557;-82
2022/05/12 01:20:28;;;;;;;;;;;;;;;;;;5078244;28;27876;-82
2022/05/12 01:22:53;;;;;;;;;;;;;;;;;;5078626;28;28466;-82
2022/05/12 01:25:18;;;;;;;;;;;;;;;;;;5069425;28;28574;-82
2022/05/12 01:27:43;;;;;;;;;;;;;;;;;;5057663;28;28523;-82
2022/05/12 01:30:08;;;;;;;;;;;;;;;;;;5058035;28;28440;-82
2022/05/12 01:32:34;;;;;;;;;;;;;;;;;;5058488;28;28490;-82
2022/05/12 01:34:59;;;;;;;;;;;;;;;;;;5077093;28;29356;-82
2022/05/12 01:37:24;;;;;;;;;;;;;;;;;;5078014;28;28474;-82
2022/05/12 01:39:49;;;;;;;;;;;;;;;;;;5077864;28;28320;-82
2022/05/12 01:42:15;;;;;;;;;;;;;;;;;;5074253;28;28416;-82
2022/05/12 01:44:40;;;;;;;;;;;;;;;;;;5057794;28;28518;-82
2022/05/12 01:47:05;;;;;;;;;;;;;;;;;;5057733;28;28427;-81
2022/05/12 01:49:30;;;;;;;;;;;;;;;;;;5057696;28;28532;-82
2022/05/12 01:51:55;;;;;;;;;;;;;;;;;;5057772;28;28340;-82
2022/05/12 01:54:20;;;;;;;;;;;;;;;;;;5057685;28;28686;-82
2022/05/12 01:56:45;;;;;;;;;;;;;;;;;;5057519;28;28455;-82
2022/05/12 01:59:10;;;;;;;;;;;;;;;;;;5057235;28;28328;-81
2022/05/12 02:01:35;;;;;;;;;;;;;;;;;;5057607;28;27865;-82
2022/05/12 02:04:02;;;;;;;;;;;;;;;;;;5070246;28;28350;-82
2022/05/12 02:06:27;;;;;;;;;;;;;;;;;;5059312;28;28321;-82
2022/05/12 02:08:52;;;;;;;;;;;;;;;;;;5060384;28;28348;-82
2022/05/12 02:11:17;;;;;;;;;;;;;;;;;;5057581;28;28332;-82
2022/05/12 02:13:43;;;;;;;;;;;;;;;;;;5057287;28;28341;-82
2022/05/12 02:16:08;;;;;;;;;;;;;;;;;;5063528;28;28743;-82
2022/05/12 02:18:34;;;;;;;;;;;;;;;;;;5071870;28;28368;-82
2022/05/12 02:20:59;;;;;;;;;;;;;;;;;;5077128;28;28393;-82
2022/05/12 02:23:24;;;;;;;;;;;;;;;;;;5077503;28;28263;-82
2022/05/12 02:25:50;;;;;;;;;;;;;;;;;;5077091;28;28251;-82
2022/05/12 02:28:15;;;;;;;;;;;;;;;;;;5076516;28;28324;-82
2022/05/12 02:30:40;;;;;;;;;;;;;;;;;;5067767;28;28260;-82
2022/05/12 02:33:05;;;;;;;;;;;;;;;;;;5056900;28;29361;-82
2022/05/12 02:35:31;;;;;;;;;;;;;;;;;;5057016;28;28245;-82
2022/05/12 02:37:56;;;;;;;;;;;;;;;;;;5056747;28;28300;-82
2022/05/12 02:40:21;;;;;;;;;;;;;;;;;;5057245;28;28231;-82
2022/05/12 02:42:46;;;;;;;;;;;;;;;;;;5057263;28;28724;-82
2022/05/12 02:45:11;;;;;;;;;;;;;;;;;;5076263;28;28292;-82
2022/05/12 02:47:36;;;;;;;;;;;;;;;;;;5075866;28;28456;-82
2022/05/12 02:50:01;;;;;;;;;;;;;;;;;;5057227;28;28470;-82
2022/05/12 02:52:27;;;;;;;;;;;;;;;;;;5075225;28;33698;-82
2022/05/12 02:54:52;;;;;;;;;;;;;;;;;;5076836;28;28354;-82
2022/05/12 02:57:17;;;;;;;;;;;;;;;;;;5076510;28;28559;-82
2022/05/12 02:59:42;;;;;;;;;;;;;;;;;;5075635;28;28565;-81
2022/05/12 03:02:07;;;;;;;;;;;;;;;;;;5076288;28;28513;-82
2022/05/12 03:04:33;;;;;;;;;;;;;;;;;;5076577;28;28309;-82
2022/05/12 03:06:58;;;;;;;;;;;;;;;;;;5076483;28;28596;-82
2022/05/12 03:09:23;;;;;;;;;;;;;;;;;;5076438;28;28436;-82
2022/05/12 03:11:48;;;;;;;;;;;;;;;;;;5075532;28;29717;-82
2022/05/12 03:14:13;;;;;;;;;;;;;;;;;;5076398;28;28435;-82
2022/05/12 03:16:38;;;;;;;;;;;;;;;;;;5076201;28;28435;-82
2022/05/12 03:19:04;;;;;;;;;;;;;;;;;;5076574;28;28335;-82
2022/05/12 03:21:29;;;;;;;;;;;;;;;;;;5059590;28;28522;-82
2022/05/12 03:23:54;;;;;;;;;;;;;;;;;;5055920;28;28424;-82
2022/05/12 03:26:19;;;;;;;;;;;;;;;;;;5056126;28;28366;-82
2022/05/12 03:28:44;;;;;;;;;;;;;;;;;;5056533;28;28431;-82
2022/05/12 03:31:09;;;;;;;;;;;;;;;;;;5056104;28;29477;-82
2022/05/12 03:33:34;;;;;;;;;;;;;;;;;;5056074;28;28454;-82
2022/05/12 03:35:59;;;;;;;;;;;;;;;;;;5057139;28;28451;-82
2022/05/12 03:38:24;;;;;;;;;;;;;;;;;;5073833;28;28379;-82
2022/05/12 03:40:50;;;;;;;;;;;;;;;;;;5076112;28;28385;-82
2022/05/12 03:44:46;;;;;;;;;;;;;;;;;;5074794;28;28405;-82
2022/05/12 03:46:00;;;;;;;;;;;;;;;;;;5075964;28;28387;-82
2022/05/12 03:48:25;;;;;;;;;;;;;;;;;;5076027;28;28419;-82
2022/05/12 03:50:50;;;;;;;;;;;;;;;;;;5075864;28;28419;-82
2022/05/12 03:53:15;;;;;;;;;;;;;;;;;;5075875;28;28431;-82
2022/05/12 03:55:40;;;;;;;;;;;;;;;;;;5075852;28;28517;-83
2022/05/12 03:58:05;;;;;;;;;;;;;;;;;;5063092;28;28349;-83
2022/05/12 04:00:32;;;;;;;;;;;;;;;;;;5055692;28;28507;-82
2022/05/12 04:02:57;;;;;;;;;;;;;;;;;;5055673;28;28414;-82
2022/05/12 04:05:22;;;;;;;;;;;;;;;;;;5064327;28;28446;-82
2022/05/12 04:07:47;;;;;;;;;;;;;;;;;;5075269;28;28450;-82
2022/05/12 04:10:13;;;;;;;;;;;;;;;;;;5069268;28;28569;-81
2022/05/12 04:12:38;;;;;;;;;;;;;;;;;;5075247;28;28308;-82
2022/05/12 04:15:03;;;;;;;;;;;;;;;;;;5075170;28;28792;-81
2022/05/12 04:17:28;;;;;;;;;;;;;;;;;;5075493;28;28326;-82
2022/05/12 04:19:53;;;;;;;;;;;;;;;;;;5075255;28;28705;-82
2022/05/12 04:22:18;;;;;;;;;;;;;;;;;;5075146;28;28295;-81
2022/05/12 04:24:43;;;;;;;;;;;;;;;;;;5073411;28;28443;-82
2022/05/12 04:27:08;;;;;;;;;;;;;;;;;;5072778;28;28546;-82
2022/05/12 04:29:33;;;;;;;;;;;;;;;;;;5074628;28;29619;-82
2022/05/12 04:31:59;;;;;;;;;;;;;;;;;;5074863;28;28371;-81
2022/05/12 04:37:07;;;;;;;;;;;;;;;;;;5075457;28;28249;-81
2022/05/12 04:39:32;;;;;;;;;;;;;;;;;;5075177;28;28462;-82
2022/05/12 04:41:58;;;;;;;;;;;;;;;;;;5074796;28;28253;-82
2022/05/12 04:44:23;;;;;;;;;;;;;;;;;;5075047;28;28368;-84
2022/05/12 04:46:48;;;;;;;;;;;;;;;;;;5075167;28;28561;-81
2022/05/12 04:49:13;;;;;;;;;;;;;;;;;;5073029;28;28571;-81
2022/05/12 04:51:38;;;;;;;;;;;;;;;;;;5074916;28;28320;-84
2022/05/12 04:54:06;;;;;;;;;;;;;;;;;;5075100;28;28468;-90
2022/05/12 04:56:31;;;;;;;;;;;;;;;;;;5075198;28;28344;-82
2022/05/12 04:58:56;;;;;;;;;;;;;;;;;;5076384;28;28396;-82
2022/05/12 05:01:21;;;;;;;;;;;;;;;;;;5076065;28;28761;-82
2022/05/12 05:03:46;;;;;;;;;;;;;;;;;;5072947;28;28517;-81
2022/05/12 05:06:11;;;;;;;;;;;;;;;;;;5074709;28;28492;-82
2022/05/12 05:08:36;;;;;;;;;;;;;;;;;;5074706;28;28374;-82
2022/05/12 05:11:03;;;;;;;;;;;;;;;;;;5058643;28;28489;-82
2022/05/12 05:13:29;;;;;;;;;;;;;;;;;;5054535;28;27832;-82
2022/05/12 05:15:54;;;;;;;;;;;;;;;;;;5054570;28;28466;-82
2022/05/12 05:18:19;;;;;;;;;;;;;;;;;;5054064;28;28419;-82
2022/05/12 05:20:44;;;;;;;;;;;;;;;;;;5053637;28;28373;-84
2022/05/12 05:23:10;;;;;;;;;;;;;;;;;;5053199;28;28518;-83
2022/05/12 05:25:35;;;;;;;;;;;;;;;;;;5054183;28;28493;-84
2022/05/12 05:28:00;;;;;;;;;;;;;;;;;;5053924;28;28526;-83
2022/05/12 05:30:25;;;;;;;;;;;;;;;;;;5057125;28;28419;-85
2022/05/12 05:32:50;;;;;;;;;;;;;;;;;;5074057;28;28395;-86
2022/05/12 05:35:15;;;;;;;;;;;;;;;;;;5077011;28;28534;-85
2022/05/12 05:37:41;;;;;;;;;;;;;;;;;;5077729;28;29523;-86
2022/05/12 05:40:06;;;;;;;;;;;;;;;;;;5059562;28;29346;-84
2022/05/12 05:42:31;;;;;;;;;;;;;;;;;;5078267;28;28312;-84
2022/05/12 05:44:56;;;;;;;;;;;;;;;;;;5076081;28;28672;-84
2022/05/12 05:47:21;;;;;;;;;;;;;;;;;;5057678;28;28514;-84
2022/05/12 05:49:46;;;;;;;;;;;;;;;;;;5060688;28;28407;-85
2022/05/12 05:54:55;;;;;;;;;;;;;;;;;;5077291;28;28340;-85
2022/05/12 05:57:20;;;;;;;;;;;;;;;;;;5077588;28;28482;-85
2022/05/12 05:59:45;;;;;;;;;;;;;;;;;;5077398;28;28413;-85
2022/05/12 06:02:10;;;;;;;;;;;;;;;;;;5077973;28;28297;-85
2022/05/12 06:04:35;;;;;;;;;;;;;;;;;;5079630;28;28410;-83
2022/05/12 06:07:00;;;;;;;;;;;;;;;;;;5077227;28;28602;-82
2022/05/12 06:09:25;;;;;;;;;;;;;;;;;;5061911;28;28376;-83
2022/05/12 06:11:50;;;;;;;;;;;;;;;;;;5057116;28;28483;-83
2022/05/12 06:14:15;;;;;;;;;;;;;;;;;;5057215;28;28339;-85
2022/05/12 06:16:41;;;;;;;;;;;;;;;;;;5070039;28;28553;-84
2022/05/12 06:19:06;;;;;;;;;;;;;;;;;;5072670;28;28483;-84
2022/05/12 06:21:31;;;;;;;;;;;;;;;;;;5077678;28;28486;-84
2022/05/12 06:23:56;;;;;;;;;;;;;;;;;;5077486;28;28328;-85
2022/05/12 06:26:22;;;;;;;;;;;;;;;;;;5077405;28;29452;-84
2022/05/12 06:28:48;;;;;;;;;;;;;;;;;;5076886;28;28470;-84
2022/05/12 06:31:13;;;;;;;;;;;;;;;;;;5077037;28;28379;-85
2022/05/12 06:33:38;;;;;;;;;;;;;;;;;;5074156;28;28486;-84
2022/05/12 06:36:03;;;;;;;;;;;;;;;;;;5065709;28;28457;-86
2022/05/12 06:38:28;;;;;;;;;;;;;;;;;;5064094;28;28255;-85
2022/05/12 06:40:53;;;;;;;;;;;;;;;;;;5075907;28;28455;-85
2022/05/12 06:43:18;;;;;;;;;;;;;;;;;;5075322;28;28237;-84
2022/05/12 06:45:44;;;;;;;;;;;;;;;;;;5064222;28;28363;-84
2022/05/12 06:48:09;;;;;;;;;;;;;;;;;;5076694;28;28312;-85
2022/05/12 06:50:34;;;;;;;;;;;;;;;;;;5076052;28;28228;-85
2022/05/12 06:52:59;;;;;;;;;;;;;;;;;;5077028;28;28430;-84
2022/05/12 06:55:27;;;;;;;;;;;;;;;;;;5076561;28;28405;-85
2022/05/12 06:57:52;;;;;;;;;;;;;;;;;;5076627;28;28288;-86
2022/05/12 07:00:17;;;;;;;;;;;;;;;;;;5072187;28;28247;-86
2022/05/12 07:02:42;;;;;;;;;;;;;;;;;;5067953;28;28533;-85
2022/05/12 07:05:08;;;;;;;;;;;;;;;;;;5065654;28;28554;-85
2022/05/12 07:07:34;;;;;;;;;;;;;;;;;;5074055;28;28425;-84
2022/05/12 07:10:00;;;;;;;;;;;;;;;;;;5076343;28;28374;-85
2022/05/12 07:12:26;;;;;;;;;;;;;;;;;;5076725;28;28344;-84
2022/05/12 07:14:52;;;;;;;;;;;;;;;;;;5076370;28;29156;-84
2022/05/12 07:17:17;;;;;;;;;;;;;;;;;;5074689;28;28372;-84
2022/05/12 07:19:42;;;;;;;;;;;;;;;;;;5073349;28;28542;-86
2022/05/12 07:27:35;;;;;;;;;;;;;;;;;;5060028;28;28449;-86
2022/05/12 07:30:00;;;;;;;;;;;;;;;;;;5073830;28;28494;-87
2022/05/12 07:32:25;;;;;;;;;;;;;;;;;;5056179;28;28522;-88
2022/05/12 07:34:50;;;;;;;;;;;;;;;;;;5055917;28;29543;-87
2022/05/12 07:37:15;;;;;;;;;;;;;;;;;;5070775;28;28522;-86
2022/05/12 07:39:41;;;;;;;;;;;;;;;;;;5076147;28;28466;-85
2022/05/12 07:42:06;;;;;;;;;;;;;;;;;;5076443;28;28399;-85
2022/05/12 07:44:34;;;;;;;;;;;;;;;;;;5075917;28;28410;-86
2022/05/12 07:47:00;;;;;;;;;;;;;;;;;;5075698;28;28371;-86
2022/05/12 07:49:28;;;;;;;;;;;;;;;;;;5075815;28;28398;-87
2022/05/12 07:51:53;;;;;;;;;;;;;;;;;;5075953;28;28399;-87
2022/05/12 07:54:18;;;;;;;;;;;;;;;;;;5075345;28;28441;-86
2022/05/12 07:56:43;;;;;;;;;;;;;;;;;;5075531;28;28491;-86
2022/05/12 07:59:08;;;;;;;;;;;;;;;;;;5065171;28;28439;-88
2022/05/12 08:01:33;;;;;;;;;;;;;;;;;;5073997;28;28745;-86
2022/05/12 08:03:58;;;;;;;;;;;;;;;;;;5075643;28;29598;-85
2022/05/12 08:06:24;;;;;;;;;;;;;;;;;;5069956;28;28112;-86
2022/05/12 08:08:49;;;;;;;;;;;;;;;;;;5073719;28;28579;-86
2022/05/12 08:11:14;;;;;;;;;;;;;;;;;;5070423;28;28303;-86
2022/05/12 08:13:39;;;;;;;;;;;;;;;;;;5064785;28;29879;-86
2022/05/12 08:16:04;;;;;;;;;;;;;;;;;;5073647;28;28390;-86
2022/05/12 08:18:30;;;;;;;;;;;;;;;;;;5073504;28;28425;-86
2022/05/12 08:20:55;;;;;;;;;;;;;;;;;;5056012;28;28436;-84
2022/05/12 08:23:20;;;;;;;;;;;;;;;;;;5055037;28;28609;-85
2022/05/12 08:25:45;;;;;;;;;;;;;;;;;;5072713;28;29852;-86
2022/05/12 08:28:10;;;;;;;;;;;;;;;;;;5075207;28;28402;-85
2022/05/12 08:30:35;;;;;;;;;;;;;;;;;;5074620;28;28373;-86
2022/05/12 08:33:00;;;;;;;;;;;;;;;;;;5074890;28;28379;-85
2022/05/12 08:35:25;;;;;;;;;;;;;;;;;;5074801;28;28495;-82
2022/05/12 08:37:50;;;;;;;;;;;;;;;;;;5072031;28;28395;-82
2022/05/12 08:40:15;;;;;;;;;;;;;;;;;;5075092;28;28339;-82
2022/05/12 08:42:41;;;;;;;;;;;;;;;;;;5075190;28;28597;-82
2022/05/12 08:45:06;;;;;;;;;;;;;;;;;;5074789;28;28409;-82
2022/05/12 08:47:31;;;;;;;;;;;;;;;;;;5072790;28;28414;-82
2022/05/12 08:49:56;;;;;;;;;;;;;;;;;;5075343;28;28515;-82
2022/05/12 08:52:22;;;;;;;;;;;;;;;;;;5059609;28;28442;-89
2022/05/12 08:54:47;;;;;;;;;;;;;;;;;;5056575;28;28448;-90
2022/05/12 08:57:12;;;;;;;;;;;;;;;;;;5055177;28;28539;-90
2022/05/12 08:59:37;;;;;;;;;;;;;;;;;;5074950;28;28541;-90
2022/05/12 09:02:02;;;;;;;;;;;;;;;;;;5074599;28;29865;-92
2022/05/12 09:04:27;;;;;;;;;;;;;;;;;;5061418;28;28564;-86
2022/05/12 09:06:53;;;;;;;;;;;;;;;;;;5076237;28;28329;-89
2022/05/12 09:09:18;;;;;;;;;;;;;;;;;;5042399;28;28369;-88
2022/05/12 09:11:44;;;;;;;;;;;;;;;;;;5059850;28;29491;-93
2022/05/12 09:14:09;;;;;;;;;;;;;;;;;;5058667;28;28269;-88
2022/05/12 09:16:34;;;;;;;;;;;;;;;;;;5058269;28;28395;-86
2022/05/12 09:18:59;;;;;;;;;;;;;;;;;;5077434;28;28301;-88
2022/05/12 09:21:24;;;;;;;;;;;;;;;;;;5075089;28;28825;-86
2022/05/12 09:23:49;;;;;;;;;;;;;;;;;;5068436;28;28258;-85
2022/05/12 09:26:16;;;;;;;;;;;;;;;;;;5077706;28;29593;-85
2022/05/12 09:28:41;;;;;;;;;;;;;;;;;;5074353;28;28618;-88
2022/05/12 09:31:06;;;;;;;;;;;;;;;;;;5072137;28;29191;-83
2022/05/12 09:33:31;;;;;;;;;;;;;;;;;;5071420;28;28245;-87
2022/05/12 09:35:56;;;;;;;;;;;;;;;;;;5073533;28;28508;-89
2022/05/12 09:38:23;;;;;;;;;;;;;;;;;;5074769;28;28466;-87
2022/05/12 09:40:48;;;;;;;;;;;;;;;;;;5072548;28;28647;-88
2022/05/12 09:43:15;;;;;;;;;;;;;;;;;;5078302;28;28335;-91
2022/05/12 09:45:40;;;;;;;;;;;;;;;;;;5065629;28;28347;-88
2022/05/12 09:48:05;;;;;;;;;;;;;;;;;;5076248;28;28411;-84
2022/05/12 09:50:32;;;;;;;;;;;;;;;;;;5075157;28;28521;-88
2022/05/12 09:52:57;;;;;;;;;;;;;;;;;;5076451;28;28110;-90
2022/05/12 09:55:24;;;;;;;;;;;;;;;;;;5063208;28;28509;-87
2022/05/12 09:57:49;;;;;;;;;;;;;;;;;;5072746;28;29662;-86
2022/05/12 10:00:15;;;;;;;;;;;;;;;;;;5069976;28;29494;-86
2022/05/12 10:08:16;;;;;;;;;;;;;;;;;;5058263;28;28484;-86
2022/05/12 10:10:41;;;;;;;;;;;;;;;;;;5075085;28;29600;-89
2022/05/12 10:13:06;;;;;;;;;;;;;;;;;;5075347;28;28869;-89
2022/05/12 10:15:32;;;;;;;;;;;;;;;;;;5059861;28;28368;-89
2022/05/12 10:17:57;;;;;;;;;;;;;;;;;;5073600;28;28312;-88
2022/05/12 10:20:22;;;;;;;;;;;;;;;;;;5058574;28;28402;-88
2022/05/12 10:22:47;;;;;;;;;;;;;;;;;;5071145;28;29453;-87
2022/05/12 10:25:13;;;;;;;;;;;;;;;;;;5057408;28;28328;-88
2022/05/12 10:27:38;;;;;;;;;;;;;;;;;;5063815;28;28525;-88
2022/05/12 10:30:03;;;;;;;;;;;;;;;;;;5076819;28;29144;-89
2022/05/12 10:32:28;;;;;;;;;;;;;;;;;;5071921;28;28506;-88
2022/05/12 10:34:54;;;;;;;;;;;;;;;;;;5075506;28;28383;-87
2022/05/12 10:37:19;;;;;;;;;;;;;;;;;;5077561;28;28479;-88
2022/05/12 10:39:44;;;;;;;;;;;;;;;;;;5074359;28;29242;-87
2022/05/12 10:42:10;;;;;;;;;;;;;;;;;;5073034;28;28552;-90
2022/05/12 10:44:35;;;;;;;;;;;;;;;;;;5060078;28;28434;-92
2022/05/12 10:47:00;;;;;;;;;;;;;;;;;;5077492;28;28393;-91
2022/05/12 10:49:25;;;;;;;;;;;;;;;;;;5058863;28;28404;-91
2022/05/12 10:51:50;;;;;;;;;;;;;;;;;;5069386;28;28552;-89
2022/05/12 10:54:16;;;;;;;;;;;;;;;;;;5051862;28;28253;-90
2022/05/12 10:56:43;;;;;;;;;;;;;;;;;;5063762;28;28339;-91
2022/05/12 10:59:09;;;;;;;;;;;;;;;;;;5056345;28;28287;-92
2022/05/12 11:01:34;;;;;;;;;;;;;;;;;;5076268;28;28407;-92
2022/05/12 11:03:59;;;;;;;;;;;;;;;;;;5077446;28;28464;-93
2022/05/12 11:06:24;;;;;;;;;;;;;;;;;;5077116;28;28435;-89
2022/05/12 11:08:50;;;;;;;;;;;;;;;;;;5077354;28;28411;-88
2022/05/12 11:11:15;;;;;;;;;;;;;;;;;;5077520;28;28390;-95
2022/05/12 11:13:40;;;;;;;;;;;;;;;;;;5077153;28;28404;-88
2022/05/12 11:16:05;;;;;;;;;;;;;;;;;;5058625;28;28395;-89
2022/05/12 11:18:30;;;;;;;;;;;;;;;;;;5057361;28;29029;-89
2022/05/12 11:20:56;;;;;;;;;;;;;;;;;;5057514;28;28458;-90
2022/05/12 11:23:21;;;;;;;;;;;;;;;;;;5057499;28;28401;-89
2022/05/12 11:25:47;;;;;;;;;;;;;;;;;;5057081;28;28309;-91
2022/05/12 11:30:56;;;;;;;;;;;;;;;;;;5077119;28;28308;-90
2022/05/12 11:33:22;;;;;;;;;;;;;;;;;;5076913;28;28454;-89
2022/05/12 11:35:48;;;;;;;;;;;;;;;;;;5076733;28;28352;-89
2022/05/12 11:38:14;;;;;;;;;;;;;;;;;;5067727;28;28425;-89
2022/05/12 11:40:48;;;;;;;;;;;;;;;;;;5056257;28;28366;-87
2022/05/12 11:45:57;;;;;;;;;;;;;;;;;;5056268;28;28494;-88
2022/05/12 11:48:22;;;;;;;;;;;;;;;;;;5057146;28;28325;-92
2022/05/12 11:50:47;;;;;;;;;;;;;;;;;;5058508;28;28411;-95
2022/05/12 11:53:12;;;;;;;;;;;;;;;;;;5056251;28;28440;-91
2022/05/12 11:55:37;;;;;;;;;;;;;;;;;;5056072;28;28329;-91
2022/05/12 11:58:03;;;;;;;;;;;;;;;;;;5055837;28;29267;-89
2022/05/12 12:00:28;;;;;;;;;;;;;;;;;;5055413;28;28352;-90
2022/05/12 12:02:53;;;;;;;;;;;;;;;;;;5065218;28;28322;-90
2022/05/12 12:05:18;;;;;;;;;;;;;;;;;;5076560;28;28361;-91
2022/05/12 12:07:44;;;;;;;;;;;;;;;;;;5075997;28;28452;-90
2022/05/12 12:10:09;;;;;;;;;;;;;;;;;;5075812;28;28477;-90
2022/05/12 12:12:34;;;;;;;;;;;;;;;;;;5075798;28;28311;-89
2022/05/12 12:14:59;;;;;;;;;;;;;;;;;;5075328;28;28481;-90
2022/05/12 12:17:24;;;;;;;;;;;;;;;;;;5075920;28;28241;-89
2022/05/12 12:19:49;;;;;;;;;;;;;;;;;;5062501;28;28335;-89
2022/05/12 12:22:14;;;;;;;;;;;;;;;;;;5055709;28;28507;-84
2022/05/12 12:24:40;;;;;;;;;;;;;;;;;;5071006;28;27881;-85
2022/05/12 12:27:05;;;;;;;;;;;;;;;;;;5075402;28;28509;-83
2022/05/12 12:29:30;;;;;;;;;;;;;;;;;;5055683;28;28285;-82
2022/05/12 12:31:55;;;;;;;;;;;;;;;;;;5055186;28;28439;-83
2022/05/12 12:34:21;;;;;;;;;;;;;;;;;;5055119;28;28317;-85
2022/05/12 12:36:46;;;;;;;;;;;;;;;;;;5070267;28;28446;-85
2022/05/12 12:39:11;;;;;;;;;;;;;;;;;;5074534;28;28343;-83
2022/05/12 12:41:36;;;;;;;;;;;;;;;;;;5070355;28;28387;-86
2022/05/12 12:44:01;;;;;;;;;;;;;;;;;;5052124;28;28332;-85
2022/05/12 12:46:26;;;;;;;;;;;;;;;;;;5059867;28;28545;-85
2022/05/12 12:48:51;;;;;;;;;;;;;;;;;;5074122;28;28462;-85
2022/05/12 12:51:16;;;;;;;;;;;;;;;;;;5065283;28;28340;-85
2022/05/12 12:56:32;;;;;;;;;;;;;;;;;;5074730;28;28570;-85
2022/05/12 12:58:57;;;;;;;;;;;;;;;;;;5072723;28;28517;-84
2022/05/12 13:01:22;;;;;;;;;;;;;;;;;;5074918;28;28481;-84
2022/05/12 13:03:47;;;;;;;;;;;;;;;;;;5071384;28;28482;-84
2022/05/12 13:06:12;;;;;;;;;;;;;;;;;;5074495;28;28762;-84
2022/05/12 13:08:37;;;;;;;;;;;;;;;;;;5074407;28;28442;-84
2022/05/12 13:11:02;;;;;;;;;;;;;;;;;;5074511;28;28497;-84
2022/05/12 13:13:28;;;;;;;;;;;;;;;;;;5073664;28;28461;-85
2022/05/12 13:15:53;;;;;;;;;;;;;;;;;;5074956;28;29017;-89
2022/05/12 13:18:18;;;;;;;;;;;;;;;;;;5074185;28;28474;-87
2022/05/12 13:20:43;;;;;;;;;;;;;;;;;;5069750;28;28458;-87
2022/05/12 13:23:08;;;;;;;;;;;;;;;;;;5054839;28;27864;-88
2022/05/12 13:25:33;;;;;;;;;;;;;;;;;;5067053;28;28480;-87
2022/05/12 13:27:58;;;;;;;;;;;;;;;;;;5062566;28;28542;-95
2022/05/12 13:30:23;;;;;;;;;;;;;;;;;;5053366;28;28413;-87
2022/05/12 13:32:49;;;;;;;;;;;;;;;;;;5064265;28;28303;-88
2022/05/12 13:35:14;;;;;;;;;;;;;;;;;;5074264;28;28976;-87
2022/05/12 13:37:39;;;;;;;;;;;;;;;;;;5056492;28;28463;-89
2022/05/12 13:40:06;;;;;;;;;;;;;;;;;;5056138;28;28430;-88
2022/05/12 13:42:31;;;;;;;;;;;;;;;;;;5074520;28;28310;-87
2022/05/12 13:44:57;;;;;;;;;;;;;;;;;;5074373;28;29438;-87
2022/05/12 13:47:22;;;;;;;;;;;;;;;;;;5074474;28;28307;-88
2022/05/12 13:49:47;;;;;;;;;;;;;;;;;;5072790;28;28384;-87
2022/05/12 13:52:12;;;;;;;;;;;;;;;;;;5072892;28;28428;-87
2022/05/12 13:54:37;;;;;;;;;;;;;;;;;;5072727;28;28462;-86
2022/05/12 13:57:02;;;;;;;;;;;;;;;;;;5076202;28;27903;-88
2022/05/12 13:59:27;;;;;;;;;;;;;;;;;;5077308;28;28262;-87
2022/05/12 14:01:53;;;;;;;;;;;;;;;;;;5077272;28;28442;-88
2022/05/12 14:04:18;;;;;;;;;;;;;;;;;;5076920;28;28462;-87
2022/05/12 14:06:43;;;;;;;;;;;;;;;;;;5077667;28;28524;-87
2022/05/12 14:09:09;;;;;;;;;;;;;;;;;;5077539;28;28501;-87
2022/05/12 14:11:34;;;;;;;;;;;;;;;;;;5077709;28;28424;-87
2022/05/12 14:19:28;;;;;;;;;;;;;;;;;;5077548;28;28530;-83
2022/05/12 14:21:53;;;;;;;;;;;;;;;;;;5077539;28;28464;-82
2022/05/12 14:24:18;;;;;;;;;;;;;;;;;;5077308;28;28616;-82
2022/05/12 14:26:43;;;;;;;;;;;;;;;;;;5065948;28;28361;-86
2022/05/12 14:29:09;;;;;;;;;;;;;;;;;;5057055;28;28327;-82
2022/05/12 14:31:35;;;;;;;;;;;;;;;;;;5070363;28;29582;-88
2022/05/12 14:34:01;;;;;;;;;;;;;;;;;;5070665;28;29537;-83
2022/05/12 14:36:26;;;;;;;;;;;;;;;;;;5077303;28;28478;-83
2022/05/12 14:38:52;;;;;;;;;;;;;;;;;;5074172;28;28749;-85
2022/05/12 14:41:17;;;;;;;;;;;;;;;;;;5075438;28;28530;-83
2022/05/12 14:43:42;;;;;;;;;;;;;;;;;;5071008;28;29634;-86
2022/05/12 14:46:07;;;;;;;;;;;;;;;;;;5075783;28;28486;-87
2022/05/12 14:48:32;;;;;;;;;;;;;;;;;;5075488;28;28494;-86
2022/05/12 14:50:57;;;;;;;;;;;;;;;;;;5076158;28;28471;-85
2022/05/12 14:53:22;;;;;;;;;;;;;;;;;;5076424;28;28540;-86
2022/05/12 14:55:47;;;;;;;;;;;;;;;;;;5062309;28;28518;-84
2022/05/12 14:58:12;;;;;;;;;;;;;;;;;;5056306;28;28470;-82
2022/05/12 15:00:38;;;;;;;;;;;;;;;;;;5060855;28;28338;-83
2022/05/12 15:03:03;;;;;;;;;;;;;;;;;;5063163;28;28237;-83
2022/05/12 15:05:29;;;;;;;;;;;;;;;;;;5061021;28;28519;-80
2022/05/12 15:07:54;;;;;;;;;;;;;;;;;;5069132;28;28547;-83
2022/05/12 15:10:19;;;;;;;;;;;;;;;;;;5074642;28;28526;-83
2022/05/12 15:12:44;;;;;;;;;;;;;;;;;;5075453;28;29557;-83
2022/05/12 15:15:10;;;;;;;;;;;;;;;;;;5068447;28;28244;-83
2022/05/12 15:17:35;;;;;;;;;;;;;;;;;;5061788;28;28462;-83
2022/05/12 15:20:00;;;;;;;;;;;;;;;;;;5068334;28;28399;-83
2022/05/12 15:22:25;;;;;;;;;;;;;;;;;;5072676;28;28582;-83
2022/05/12 15:24:50;;;;;;;;;;;;;;;;;;5068322;28;28606;-82
2022/05/12 15:27:15;;;;;;;;;;;;;;;;;;5057733;28;28507;-82
2022/05/12 15:29:45;;;;;;;;;;;;;;;;;;5060220;28;29362;-82
2022/05/12 15:32:10;;;;;;;;;;;;;;;;;;5058625;28;28683;-82
2022/05/12 15:34:35;;;;;;;;;;;;;;;;;;5055695;28;28486;-83
2022/05/12 15:37:01;;;;;;;;;;;;;;;;;;5082027;28;28490;-83
2022/05/12 15:39:26;;;;;;;;;;;;;;;;;;5096228;28;28367;-83
2022/05/12 15:41:51;;;;;;;;;;;;;;;;;;5080259;28;28482;-83
2022/05/12 15:44:16;;;;;;;;;;;;;;;;;;5075455;28;28340;-86
2022/05/12 15:46:41;;;;;;;;;;;;;;;;;;5081124;28;28415;-86
2022/05/12 15:49:06;;;;;;;;;;;;;;;;;;5096487;27;28522;-92
2022/05/12 15:51:31;;;;;;;;;;;;;;;;;;5059004;28;29943;-90
2022/05/12 15:53:56;;;;;;;;;;;;;;;;;;5074544;28;28345;-87
2022/05/12 15:56:22;;;;;;;;;;;;;;;;;;5074687;28;28719;-86
2022/05/12 15:58:47;;;;;;;;;;;;;;;;;;5068675;28;28451;-87
2022/05/12 16:01:12;;;;;;;;;;;;;;;;;;5055697;28;28428;-87
2022/05/12 16:03:37;;;;;;;;;;;;;;;;;;5060675;28;28507;-86
2022/05/12 16:06:03;;;;;;;;;;;;;;;;;;5060463;28;28538;-84
2022/05/12 16:08:28;;;;;;;;;;;;;;;;;;5060373;28;28465;-84
2022/05/12 16:10:53;;;;;;;;;;;;;;;;;;5090096;28;28406;-84
2022/05/12 16:13:23;;;;;;;;;;;;;;;;;;5075171;28;28241;-85
2022/05/12 16:15:49;;;;;;;;;;;;;;;;;;5067985;28;28478;-85
2022/05/12 16:18:14;;;;;;;;;;;;;;;;;;5054670;28;28524;-85
2022/05/12 16:20:39;;;;;;;;;;;;;;;;;;5066807;28;29235;-85
2022/05/12 16:23:04;;;;;;;;;;;;;;;;;;5089630;28;28505;-87
2022/05/12 16:25:29;;;;;;;;;;;;;;;;;;5078414;28;28502;-85
2022/05/12 16:27:54;;;;;;;;;;;;;;;;;;5074506;28;28458;-86
2022/05/12 16:30:23;;;;;;;;;;;;;;;;;;5074766;28;28430;-89
2022/05/12 16:32:48;;;;;;;;;;;;;;;;;;5074821;28;28878;-84
2022/05/12 16:35:13;;;;;;;;;;;;;;;;;;5086741;28;28505;-83
2022/05/12 16:37:39;;;;;;;;;;;;;;;;;;5095042;27;29000;-82
2022/05/12 16:40:04;;;;;;;;;;;;;;;;;;5094502;28;28581;-86
2022/05/12 16:42:29;;;;;;;;;;;;;;;;;;5094735;28;28393;-83
2022/05/12 16:44:54;;;;;;;;;;;;;;;;;;5094554;28;28466;-83
2022/05/12 16:47:19;;;;;;;;;;;;;;;;;;5095006;28;28449;-82
2022/05/12 16:49:44;;;;;;;;;;;;;;;;;;5083852;28;28526;-83
2022/05/12 16:52:11;;;;;;;;;;;;;;;;;;5075331;28;28474;-83
2022/05/12 16:54:37;;;;;;;;;;;;;;;;;;5074539;28;28390;-85
2022/05/12 16:57:02;;;;;;;;;;;;;;;;;;5074596;28;28411;-82
2022/05/12 16:59:27;;;;;;;;;;;;;;;;;;5078077;28;29165;-85
2022/05/12 17:01:52;;;;;;;;;;;;;;;;;;5073761;28;28466;-82